Airfield :
LOGIN :

Register | Disclaimer

   EN    FR    IT 

 










Legend :    VFR   Marginal VFR   IFR   Intensive IFR   Very Intensive IFR
Visi :
Ceiling :
>= 8 km
>= 3000ft
5 to 8 km
1000 to 3000 ft
1500m to 5 km
500 to 1000 ft
800 to 1500m
200 to 500 ft
< 800m
< 200 ft
Symbols :   Thunderstorms  Fog  Heavy snow  Heavy precipitations  Wind > 20 kt
SIGMETs :     Misc.  Thunderstorms  Icing  Turbulence  Mountain Waves  Volcanic Ashes







- Airport Elevation : 53 ft
- IATA code : HAM


EDDH - Hamburg

CURRENT METAR :
  • 152020Z 29008KT 9999 -DZ BKN013 BKN016 14/12 Q1015 BECMG BKN015

EXPIRED METARs :
  • 151950Z 27009KT 9999 BKN017 BKN027 14/11 Q1015 NOSIG
  • 151920Z 28011KT 9999 SCT022 BKN027 14/11 Q1015 NOSIG
  • 151850Z 28012KT 240V300 9999 SCT022 BKN027 15/11 Q1015 NOSIG
  • 151820Z 28013KT 250V310 9999 SCT022 BKN027 15/11 Q1015 NOSIG
  • 151750Z 28014KT 9999 FEW019 SCT027 BKN030 15/11 Q1015 NOSIG

TAF TAF EDDH
Valid from the 15 at 18:00 until the 17 at 00:00 UTC


151700Z 1518/1624 28012KT 9999 BKN025
BECMG 1519/1521 28007KT
TEMPO 1600/1609 BKN013
PROB30
TEMPO 1602/1606 4000 -RADZ BKN007 OVC013
BECMG 1606/1608 30012KT
TEMPO 1610/1618 30015G25KT
BECMG 1618/1620 30006KT
No reported NOTAMs for that airfield.



MET'MAP, your aeronautical weather chart ! - Copyright ORBIFLY December 2007 - Disclaimer

ORBIFLY MET'MAP TEAM :

Programming & Development : Alexandra Zaïnal
Concept & Development : Baudouin d'Aumeries
Co-Development & Prog : Marc-Olivier Méhu
Technical & hardware support : Manuel Goepfert

Contact : metmap@orbifly.com




SOURCES & CREDITS :

   NOAA